sensor_id;sensor_type;location;lat;lon;timestamp;P1;durP1;ratioP1;P2;durP2;ratioP2
35644;SDS011;21764;52.042;6.830;2023-04-24T00:03:08;7.00;;;5.40;;
35644;SDS011;21764;52.042;6.830;2023-04-24T00:08:09;9.52;;;6.43;;
35644;SDS011;21764;52.042;6.830;2023-04-24T00:13:09;10.55;;;6.53;;
35644;SDS011;21764;52.042;6.830;2023-04-24T00:18:10;7.28;;;6.53;;
35644;SDS011;21764;52.042;6.830;2023-04-24T00:23:12;10.23;;;6.60;;
35644;SDS011;21764;52.042;6.830;2023-04-24T00:28:13;10.30;;;8.25;;
35644;SDS011;21764;52.042;6.830;2023-04-24T00:33:14;10.85;;;8.98;;
35644;SDS011;21764;52.042;6.830;2023-04-24T00:38:14;12.27;;;9.05;;
35644;SDS011;21764;52.042;6.830;2023-04-24T00:43:15;9.27;;;7.70;;
35644;SDS011;21764;52.042;6.830;2023-04-24T00:48:16;13.10;;;8.43;;
35644;SDS011;21764;52.042;6.830;2023-04-24T00:53:17;10.15;;;7.35;;
35644;SDS011;21764;52.042;6.830;2023-04-24T00:58:18;7.53;;;6.63;;
35644;SDS011;21764;52.042;6.830;2023-04-24T01:03:20;5.55;;;5.05;;
35644;SDS011;21764;52.042;6.830;2023-04-24T01:08:23;5.65;;;4.28;;
35644;SDS011;21764;52.042;6.830;2023-04-24T01:13:25;4.47;;;4.07;;
35644;SDS011;21764;52.042;6.830;2023-04-24T01:18:26;5.20;;;3.85;;
35644;SDS011;21764;52.042;6.830;2023-04-24T01:23:27;5.28;;;4.18;;
35644;SDS011;21764;52.042;6.830;2023-04-24T01:28:28;5.63;;;4.38;;
35644;SDS011;21764;52.042;6.830;2023-04-24T01:33:29;8.23;;;6.47;;
35644;SDS011;21764;52.042;6.830;2023-04-24T01:38:30;10.25;;;7.93;;
35644;SDS011;21764;52.042;6.830;2023-04-24T01:43:30;11.73;;;8.98;;
35644;SDS011;21764;52.042;6.830;2023-04-24T01:48:32;12.57;;;9.40;;
35644;SDS011;21764;52.042;6.830;2023-04-24T01:53:34;19.00;;;10.85;;
35644;SDS011;21764;52.042;6.830;2023-04-24T01:58:36;13.18;;;10.80;;
35644;SDS011;21764;52.042;6.830;2023-04-24T02:03:36;14.80;;;11.25;;
35644;SDS011;21764;52.042;6.830;2023-04-24T02:08:38;20.05;;;13.10;;
35644;SDS011;21764;52.042;6.830;2023-04-24T02:13:39;17.15;;;11.50;;
35644;SDS011;21764;52.042;6.830;2023-04-24T02:18:40;16.80;;;12.38;;
35644;SDS011;21764;52.042;6.830;2023-04-24T02:23:40;19.13;;;12.13;;
35644;SDS011;21764;52.042;6.830;2023-04-24T02:28:41;18.70;;;12.60;;
35644;SDS011;21764;52.042;6.830;2023-04-24T02:33:42;19.33;;;13.27;;
35644;SDS011;21764;52.042;6.830;2023-04-24T02:38:42;21.00;;;14.98;;
35644;SDS011;21764;52.042;6.830;2023-04-24T02:43:43;26.13;;;14.95;;
35644;SDS011;21764;52.042;6.830;2023-04-24T02:48:44;21.33;;;14.02;;
35644;SDS011;21764;52.042;6.830;2023-04-24T02:53:44;29.17;;;16.63;;
35644;SDS011;21764;52.042;6.830;2023-04-24T02:58:45;34.15;;;18.95;;
35644;SDS011;21764;52.042;6.830;2023-04-24T03:03:45;27.02;;;16.90;;
35644;SDS011;21764;52.042;6.830;2023-04-24T03:08:46;26.83;;;17.50;;
35644;SDS011;21764;52.042;6.830;2023-04-24T03:13:47;34.55;;;20.23;;
35644;SDS011;21764;52.042;6.830;2023-04-24T03:18:48;33.78;;;20.17;;
35644;SDS011;21764;52.042;6.830;2023-04-24T03:23:48;32.40;;;19.25;;
35644;SDS011;21764;52.042;6.830;2023-04-24T03:28:49;31.88;;;21.92;;
35644;SDS011;21764;52.042;6.830;2023-04-24T03:33:50;45.63;;;23.80;;
35644;SDS011;21764;52.042;6.830;2023-04-24T03:38:51;39.22;;;22.15;;
35644;SDS011;21764;52.042;6.830;2023-04-24T03:43:51;36.83;;;23.85;;
35644;SDS011;21764;52.042;6.830;2023-04-24T03:48:52;43.00;;;24.13;;
35644;SDS011;21764;52.042;6.830;2023-04-24T03:53:53;44.75;;;23.70;;
35644;SDS011;21764;52.042;6.830;2023-04-24T03:58:53;38.45;;;24.52;;
35644;SDS011;21764;52.042;6.830;2023-04-24T04:03:55;43.47;;;24.42;;
35644;SDS011;21764;52.042;6.830;2023-04-24T04:08:56;40.75;;;23.35;;
35644;SDS011;21764;52.042;6.830;2023-04-24T04:13:57;40.78;;;25.38;;
35644;SDS011;21764;52.042;6.830;2023-04-24T04:18:57;41.25;;;25.95;;
35644;SDS011;21764;52.042;6.830;2023-04-24T04:23:58;39.30;;;25.27;;
35644;SDS011;21764;52.042;6.830;2023-04-24T04:28:59;35.97;;;24.20;;
35644;SDS011;21764;52.042;6.830;2023-04-24T04:34:03;44.37;;;24.13;;
35644;SDS011;21764;52.042;6.830;2023-04-24T04:39:04;42.45;;;25.50;;
35644;SDS011;21764;52.042;6.830;2023-04-24T04:44:04;38.00;;;24.83;;
35644;SDS011;21764;52.042;6.830;2023-04-24T04:49:05;37.60;;;24.95;;
35644;SDS011;21764;52.042;6.830;2023-04-24T04:54:06;37.92;;;23.27;;
35644;SDS011;21764;52.042;6.830;2023-04-24T04:59:07;45.70;;;25.65;;
35644;SDS011;21764;52.042;6.830;2023-04-24T05:04:08;41.47;;;21.83;;
35644;SDS011;21764;52.042;6.830;2023-04-24T05:09:08;41.40;;;25.35;;
35644;SDS011;21764;52.042;6.830;2023-04-24T05:14:10;40.20;;;23.83;;
35644;SDS011;21764;52.042;6.830;2023-04-24T05:19:12;39.08;;;26.25;;
35644;SDS011;21764;52.042;6.830;2023-04-24T05:24:14;49.70;;;29.23;;
35644;SDS011;21764;52.042;6.830;2023-04-24T05:29:14;36.88;;;25.50;;
35644;SDS011;21764;52.042;6.830;2023-04-24T05:34:15;44.75;;;26.92;;
35644;SDS011;21764;52.042;6.830;2023-04-24T05:39:16;48.80;;;26.73;;
35644;SDS011;21764;52.042;6.830;2023-04-24T05:44:17;41.08;;;24.88;;
35644;SDS011;21764;52.042;6.830;2023-04-24T05:49:18;41.75;;;25.08;;
35644;SDS011;21764;52.042;6.830;2023-04-24T05:54:18;40.25;;;22.13;;
35644;SDS011;21764;52.042;6.830;2023-04-24T05:59:19;43.53;;;24.15;;
35644;SDS011;21764;52.042;6.830;2023-04-24T06:04:20;38.15;;;24.65;;
35644;SDS011;21764;52.042;6.830;2023-04-24T06:09:22;35.30;;;23.10;;
35644;SDS011;21764;52.042;6.830;2023-04-24T06:14:23;38.95;;;22.65;;
35644;SDS011;21764;52.042;6.830;2023-04-24T06:19:24;36.47;;;20.92;;
35644;SDS011;21764;52.042;6.830;2023-04-24T06:24:28;29.92;;;18.85;;
35644;SDS011;21764;52.042;6.830;2023-04-24T06:29:29;29.27;;;16.90;;
35644;SDS011;21764;52.042;6.830;2023-04-24T06:34:29;32.92;;;17.42;;
35644;SDS011;21764;52.042;6.830;2023-04-24T06:39:30;29.30;;;17.08;;
35644;SDS011;21764;52.042;6.830;2023-04-24T06:44:31;24.55;;;15.77;;
35644;SDS011;21764;52.042;6.830;2023-04-24T06:49:32;21.52;;;14.80;;
35644;SDS011;21764;52.042;6.830;2023-04-24T06:54:32;25.88;;;14.95;;
35644;SDS011;21764;52.042;6.830;2023-04-24T06:59:33;20.90;;;15.05;;
35644;SDS011;21764;52.042;6.830;2023-04-24T07:04:34;17.55;;;13.60;;
35644;SDS011;21764;52.042;6.830;2023-04-24T07:09:35;23.27;;;13.00;;
35644;SDS011;21764;52.042;6.830;2023-04-24T07:14:38;16.85;;;11.40;;
35644;SDS011;21764;52.042;6.830;2023-04-24T07:19:39;14.05;;;11.02;;
35644;SDS011;21764;52.042;6.830;2023-04-24T07:24:40;14.55;;;9.82;;
35644;SDS011;21764;52.042;6.830;2023-04-24T07:29:41;11.82;;;9.52;;
35644;SDS011;21764;52.042;6.830;2023-04-24T07:34:42;12.15;;;9.25;;
35644;SDS011;21764;52.042;6.830;2023-04-24T07:39:42;12.32;;;9.65;;
35644;SDS011;21764;52.042;6.830;2023-04-24T07:44:43;14.60;;;9.45;;
35644;SDS011;21764;52.042;6.830;2023-04-24T07:49:44;14.18;;;9.70;;
35644;SDS011;21764;52.042;6.830;2023-04-24T07:54:45;15.35;;;9.80;;
35644;SDS011;21764;52.042;6.830;2023-04-24T07:59:46;15.18;;;9.45;;
35644;SDS011;21764;52.042;6.830;2023-04-24T08:04:47;14.52;;;11.10;;
35644;SDS011;21764;52.042;6.830;2023-04-24T08:09:47;16.02;;;11.35;;
35644;SDS011;21764;52.042;6.830;2023-04-24T08:14:48;16.38;;;11.98;;
35644;SDS011;21764;52.042;6.830;2023-04-24T08:19:49;12.88;;;10.85;;
35644;SDS011;21764;52.042;6.830;2023-04-24T08:24:51;15.80;;;11.27;;
35644;SDS011;21764;52.042;6.830;2023-04-24T08:29:54;14.45;;;10.75;;
35644;SDS011;21764;52.042;6.830;2023-04-24T08:34:55;14.23;;;10.10;;
35644;SDS011;21764;52.042;6.830;2023-04-24T08:39:57;11.60;;;9.63;;
35644;SDS011;21764;52.042;6.830;2023-04-24T08:44:57;12.13;;;8.98;;
35644;SDS011;21764;52.042;6.830;2023-04-24T08:49:58;11.68;;;8.95;;
35644;SDS011;21764;52.042;6.830;2023-04-24T08:55:03;11.83;;;8.40;;
35644;SDS011;21764;52.042;6.830;2023-04-24T09:00:04;13.10;;;9.48;;
35644;SDS011;21764;52.042;6.830;2023-04-24T09:05:06;15.77;;;9.32;;
35644;SDS011;21764;52.042;6.830;2023-04-24T09:10:07;9.98;;;7.82;;
35644;SDS011;21764;52.042;6.830;2023-04-24T09:15:08;11.15;;;6.57;;
35644;SDS011;21764;52.042;6.830;2023-04-24T09:20:10;7.95;;;6.18;;
35644;SDS011;21764;52.042;6.830;2023-04-24T09:25:10;9.27;;;5.28;;
35644;SDS011;21764;52.042;6.830;2023-04-24T09:30:12;8.10;;;5.22;;
35644;SDS011;21764;52.042;6.830;2023-04-24T09:35:14;13.60;;;7.47;;
35644;SDS011;21764;52.042;6.830;2023-04-24T09:40:19;14.55;;;8.45;;
35644;SDS011;21764;52.042;6.830;2023-04-24T09:45:20;15.65;;;9.68;;
35644;SDS011;21764;52.042;6.830;2023-04-24T09:50:21;16.80;;;9.70;;
35644;SDS011;21764;52.042;6.830;2023-04-24T09:55:23;16.98;;;10.63;;
35644;SDS011;21764;52.042;6.830;2023-04-24T10:00:27;19.65;;;10.65;;
35644;SDS011;21764;52.042;6.830;2023-04-24T10:05:30;18.95;;;10.52;;
35644;SDS011;21764;52.042;6.830;2023-04-24T10:10:37;21.23;;;11.18;;
35644;SDS011;21764;52.042;6.830;2023-04-24T10:15:40;17.48;;;10.40;;
35644;SDS011;21764;52.042;6.830;2023-04-24T10:20:41;21.25;;;9.98;;
35644;SDS011;21764;52.042;6.830;2023-04-24T10:25:42;17.00;;;9.88;;
35644;SDS011;21764;52.042;6.830;2023-04-24T10:30:43;21.23;;;10.45;;
35644;SDS011;21764;52.042;6.830;2023-04-24T10:35:46;15.05;;;9.95;;
35644;SDS011;21764;52.042;6.830;2023-04-24T10:40:50;15.70;;;9.10;;
35644;SDS011;21764;52.042;6.830;2023-04-24T10:46:03;11.52;;;4.05;;
35644;SDS011;21764;52.042;6.830;2023-04-24T10:51:05;7.63;;;3.90;;
35644;SDS011;21764;52.042;6.830;2023-04-24T10:56:15;13.85;;;4.50;;
35644;SDS011;21764;52.042;6.830;2023-04-24T11:01:31;14.35;;;4.63;;
35644;SDS011;21764;52.042;6.830;2023-04-24T11:06:33;18.63;;;5.80;;
35644;SDS011;21764;52.042;6.830;2023-04-24T11:11:36;20.52;;;5.72;;
35644;SDS011;21764;52.042;6.830;2023-04-24T11:16:43;26.13;;;6.70;;
35644;SDS011;21764;52.042;6.830;2023-04-24T11:21:58;19.95;;;6.05;;
35644;SDS011;21764;52.042;6.830;2023-04-24T11:37:40;14.98;;;5.53;;
35644;SDS011;21764;52.042;6.830;2023-04-24T11:42:46;14.90;;;4.85;;
35644;SDS011;21764;52.042;6.830;2023-04-24T11:47:47;13.95;;;4.43;;
35644;SDS011;21764;52.042;6.830;2023-04-24T11:52:49;16.88;;;4.65;;
35644;SDS011;21764;52.042;6.830;2023-04-24T11:57:50;14.60;;;4.45;;
35644;SDS011;21764;52.042;6.830;2023-04-24T12:08:07;11.25;;;3.65;;
35644;SDS011;21764;52.042;6.830;2023-04-24T12:13:08;12.98;;;3.92;;
35644;SDS011;21764;52.042;6.830;2023-04-24T12:18:11;15.73;;;4.85;;
35644;SDS011;21764;52.042;6.830;2023-04-24T12:23:13;18.33;;;4.38;;
35644;SDS011;21764;52.042;6.830;2023-04-24T12:28:13;13.73;;;3.90;;
35644;SDS011;21764;52.042;6.830;2023-04-24T12:33:17;17.45;;;3.92;;
35644;SDS011;21764;52.042;6.830;2023-04-24T12:38:23;10.93;;;3.38;;
35644;SDS011;21764;52.042;6.830;2023-04-24T12:43:26;13.10;;;3.25;;
35644;SDS011;21764;52.042;6.830;2023-04-24T12:48:26;10.00;;;2.88;;
35644;SDS011;21764;52.042;6.830;2023-04-24T12:53:28;21.63;;;3.42;;
35644;SDS011;21764;52.042;6.830;2023-04-24T12:58:32;10.60;;;3.20;;
35644;SDS011;21764;52.042;6.830;2023-04-24T13:03:32;10.63;;;2.60;;
35644;SDS011;21764;52.042;6.830;2023-04-24T13:08:33;6.80;;;2.50;;
35644;SDS011;21764;52.042;6.830;2023-04-24T13:13:34;9.23;;;2.50;;
35644;SDS011;21764;52.042;6.830;2023-04-24T13:18:34;5.32;;;1.40;;
35644;SDS011;21764;52.042;6.830;2023-04-24T13:23:35;3.40;;;1.60;;
35644;SDS011;21764;52.042;6.830;2023-04-24T13:28:36;3.30;;;1.55;;
35644;SDS011;21764;52.042;6.830;2023-04-24T13:33:38;6.80;;;2.22;;
35644;SDS011;21764;52.042;6.830;2023-04-24T13:38:38;7.18;;;1.83;;
35644;SDS011;21764;52.042;6.830;2023-04-24T13:43:39;2.65;;;1.70;;
35644;SDS011;21764;52.042;6.830;2023-04-24T13:48:42;4.88;;;1.98;;
35644;SDS011;21764;52.042;6.830;2023-04-24T13:53:43;6.35;;;2.10;;
35644;SDS011;21764;52.042;6.830;2023-04-24T13:58:43;7.32;;;2.10;;
35644;SDS011;21764;52.042;6.830;2023-04-24T14:03:44;4.28;;;1.60;;
35644;SDS011;21764;52.042;6.830;2023-04-24T14:08:45;7.55;;;2.20;;
35644;SDS011;21764;52.042;6.830;2023-04-24T14:13:46;10.02;;;2.20;;
35644;SDS011;21764;52.042;6.830;2023-04-24T14:18:47;5.47;;;2.20;;
35644;SDS011;21764;52.042;6.830;2023-04-24T14:23:47;8.07;;;2.30;;
35644;SDS011;21764;52.042;6.830;2023-04-24T14:28:48;9.07;;;2.47;;
35644;SDS011;21764;52.042;6.830;2023-04-24T14:33:49;10.00;;;2.90;;
35644;SDS011;21764;52.042;6.830;2023-04-24T14:38:49;7.97;;;2.63;;
35644;SDS011;21764;52.042;6.830;2023-04-24T14:43:50;13.00;;;2.25;;
35644;SDS011;21764;52.042;6.830;2023-04-24T14:48:51;9.40;;;1.70;;
35644;SDS011;21764;52.042;6.830;2023-04-24T14:53:51;10.45;;;2.47;;
35644;SDS011;21764;52.042;6.830;2023-04-24T14:58:52;9.93;;;2.13;;
35644;SDS011;21764;52.042;6.830;2023-04-24T15:03:53;7.05;;;2.17;;
35644;SDS011;21764;52.042;6.830;2023-04-24T15:08:54;7.35;;;2.50;;
35644;SDS011;21764;52.042;6.830;2023-04-24T15:13:55;9.48;;;2.40;;
35644;SDS011;21764;52.042;6.830;2023-04-24T15:18:56;12.75;;;3.05;;
35644;SDS011;21764;52.042;6.830;2023-04-24T15:23:57;9.57;;;2.92;;
35644;SDS011;21764;52.042;6.830;2023-04-24T15:28:58;13.20;;;3.25;;
35644;SDS011;21764;52.042;6.830;2023-04-24T15:33:58;15.77;;;3.65;;
35644;SDS011;21764;52.042;6.830;2023-04-24T15:38:59;12.20;;;3.50;;
35644;SDS011;21764;52.042;6.830;2023-04-24T15:44:01;18.60;;;2.97;;
35644;SDS011;21764;52.042;6.830;2023-04-24T15:49:02;18.85;;;4.05;;
35644;SDS011;21764;52.042;6.830;2023-04-24T15:54:03;16.33;;;3.30;;
35644;SDS011;21764;52.042;6.830;2023-04-24T15:59:04;20.83;;;4.05;;
35644;SDS011;21764;52.042;6.830;2023-04-24T16:04:05;17.67;;;3.60;;
35644;SDS011;21764;52.042;6.830;2023-04-24T16:09:06;21.08;;;3.80;;
35644;SDS011;21764;52.042;6.830;2023-04-24T16:14:07;19.25;;;3.67;;
35644;SDS011;21764;52.042;6.830;2023-04-24T16:19:08;21.98;;;5.57;;
35644;SDS011;21764;52.042;6.830;2023-04-24T16:24:09;14.90;;;4.72;;
35644;SDS011;21764;52.042;6.830;2023-04-24T16:29:09;20.75;;;4.90;;
35644;SDS011;21764;52.042;6.830;2023-04-24T16:34:10;22.27;;;5.15;;
35644;SDS011;21764;52.042;6.830;2023-04-24T16:39:11;30.00;;;7.28;;
35644;SDS011;21764;52.042;6.830;2023-04-24T16:44:12;38.83;;;11.60;;
35644;SDS011;21764;52.042;6.830;2023-04-24T16:49:13;20.83;;;5.13;;
35644;SDS011;21764;52.042;6.830;2023-04-24T16:54:13;16.98;;;4.55;;
35644;SDS011;21764;52.042;6.830;2023-04-24T16:59:14;16.15;;;4.10;;
35644;SDS011;21764;52.042;6.830;2023-04-24T17:04:15;13.90;;;3.53;;
35644;SDS011;21764;52.042;6.830;2023-04-24T17:09:18;21.08;;;4.35;;
35644;SDS011;21764;52.042;6.830;2023-04-24T17:14:19;14.95;;;6.85;;
35644;SDS011;21764;52.042;6.830;2023-04-24T17:19:22;15.57;;;4.10;;
35644;SDS011;21764;52.042;6.830;2023-04-24T17:24:23;16.52;;;4.78;;
35644;SDS011;21764;52.042;6.830;2023-04-24T17:29:23;22.00;;;4.22;;
35644;SDS011;21764;52.042;6.830;2023-04-24T17:34:24;16.42;;;4.68;;
35644;SDS011;21764;52.042;6.830;2023-04-24T17:39:25;15.00;;;5.15;;
35644;SDS011;21764;52.042;6.830;2023-04-24T17:44:25;18.05;;;4.88;;
35644;SDS011;21764;52.042;6.830;2023-04-24T17:49:26;29.05;;;10.55;;
35644;SDS011;21764;52.042;6.830;2023-04-24T17:54:27;26.77;;;9.52;;
35644;SDS011;21764;52.042;6.830;2023-04-24T17:59:27;29.38;;;6.78;;
35644;SDS011;21764;52.042;6.830;2023-04-24T18:04:28;29.63;;;10.43;;
35644;SDS011;21764;52.042;6.830;2023-04-24T18:09:29;19.67;;;5.95;;
35644;SDS011;21764;52.042;6.830;2023-04-24T18:14:29;26.33;;;8.63;;
35644;SDS011;21764;52.042;6.830;2023-04-24T18:19:30;21.95;;;6.53;;
35644;SDS011;21764;52.042;6.830;2023-04-24T18:24:31;19.25;;;6.65;;
35644;SDS011;21764;52.042;6.830;2023-04-24T18:29:31;22.75;;;8.00;;
35644;SDS011;21764;52.042;6.830;2023-04-24T18:34:32;60.67;;;27.38;;
35644;SDS011;21764;52.042;6.830;2023-04-24T18:39:33;24.35;;;6.63;;
35644;SDS011;21764;52.042;6.830;2023-04-24T18:44:34;27.88;;;6.75;;
35644;SDS011;21764;52.042;6.830;2023-04-24T18:49:39;50.10;;;20.98;;
35644;SDS011;21764;52.042;6.830;2023-04-24T18:54:40;23.48;;;6.43;;
35644;SDS011;21764;52.042;6.830;2023-04-24T18:59:41;36.70;;;10.00;;
35644;SDS011;21764;52.042;6.830;2023-04-24T19:04:41;27.35;;;10.25;;
35644;SDS011;21764;52.042;6.830;2023-04-24T19:09:42;21.95;;;7.82;;
35644;SDS011;21764;52.042;6.830;2023-04-24T19:14:44;33.05;;;10.60;;
35644;SDS011;21764;52.042;6.830;2023-04-24T19:19:45;23.55;;;6.68;;
35644;SDS011;21764;52.042;6.830;2023-04-24T19:24:46;32.75;;;8.52;;
35644;SDS011;21764;52.042;6.830;2023-04-24T19:29:46;21.60;;;6.68;;
35644;SDS011;21764;52.042;6.830;2023-04-24T19:34:47;30.80;;;6.63;;
35644;SDS011;21764;52.042;6.830;2023-04-24T19:39:48;30.63;;;6.88;;
35644;SDS011;21764;52.042;6.830;2023-04-24T19:44:50;18.23;;;6.00;;
35644;SDS011;21764;52.042;6.830;2023-04-24T19:49:51;23.88;;;7.65;;
35644;SDS011;21764;52.042;6.830;2023-04-24T19:54:52;32.47;;;7.10;;
35644;SDS011;21764;52.042;6.830;2023-04-24T19:59:53;32.53;;;8.70;;
35644;SDS011;21764;52.042;6.830;2023-04-24T20:04:55;26.23;;;6.75;;
35644;SDS011;21764;52.042;6.830;2023-04-24T20:09:56;26.52;;;7.45;;
35644;SDS011;21764;52.042;6.830;2023-04-24T20:14:57;23.65;;;7.32;;
35644;SDS011;21764;52.042;6.830;2023-04-24T20:19:58;35.63;;;11.23;;
35644;SDS011;21764;52.042;6.830;2023-04-24T20:24:58;32.83;;;9.27;;
35644;SDS011;21764;52.042;6.830;2023-04-24T20:29:59;25.17;;;8.07;;
35644;SDS011;21764;52.042;6.830;2023-04-24T20:35:00;44.55;;;14.55;;
35644;SDS011;21764;52.042;6.830;2023-04-24T20:40:01;28.38;;;7.20;;
35644;SDS011;21764;52.042;6.830;2023-04-24T20:45:04;31.67;;;6.90;;
35644;SDS011;21764;52.042;6.830;2023-04-24T20:50:05;27.42;;;7.45;;
35644;SDS011;21764;52.042;6.830;2023-04-24T20:55:07;24.83;;;7.28;;
35644;SDS011;21764;52.042;6.830;2023-04-24T21:00:08;31.42;;;7.88;;
35644;SDS011;21764;52.042;6.830;2023-04-24T21:05:10;28.40;;;7.75;;
35644;SDS011;21764;52.042;6.830;2023-04-24T21:10:12;31.40;;;7.93;;
35644;SDS011;21764;52.042;6.830;2023-04-24T21:15:13;33.60;;;9.38;;
35644;SDS011;21764;52.042;6.830;2023-04-24T21:20:13;34.97;;;9.10;;
35644;SDS011;21764;52.042;6.830;2023-04-24T21:25:15;36.58;;;8.75;;
35644;SDS011;21764;52.042;6.830;2023-04-24T21:30:15;33.90;;;8.15;;
35644;SDS011;21764;52.042;6.830;2023-04-24T21:35:17;39.08;;;8.45;;
35644;SDS011;21764;52.042;6.830;2023-04-24T21:40:18;33.30;;;7.53;;
35644;SDS011;21764;52.042;6.830;2023-04-24T21:45:19;30.80;;;8.32;;
35644;SDS011;21764;52.042;6.830;2023-04-24T21:50:20;31.08;;;7.72;;
35644;SDS011;21764;52.042;6.830;2023-04-24T21:55:20;28.75;;;7.32;;
35644;SDS011;21764;52.042;6.830;2023-04-24T22:00:21;30.15;;;6.85;;
35644;SDS011;21764;52.042;6.830;2023-04-24T22:05:22;28.95;;;7.15;;
35644;SDS011;21764;52.042;6.830;2023-04-24T22:10:22;21.45;;;6.20;;
35644;SDS011;21764;52.042;6.830;2023-04-24T22:15:24;31.30;;;7.40;;
35644;SDS011;21764;52.042;6.830;2023-04-24T22:20:25;24.38;;;6.45;;
35644;SDS011;21764;52.042;6.830;2023-04-24T22:25:26;19.48;;;6.10;;
35644;SDS011;21764;52.042;6.830;2023-04-24T22:30:26;32.70;;;6.70;;
35644;SDS011;21764;52.042;6.830;2023-04-24T22:35:27;27.77;;;6.57;;
35644;SDS011;21764;52.042;6.830;2023-04-24T22:40:28;18.75;;;6.05;;
35644;SDS011;21764;52.042;6.830;2023-04-24T22:45:29;19.55;;;6.40;;
35644;SDS011;21764;52.042;6.830;2023-04-24T22:50:29;24.98;;;6.35;;
35644;SDS011;21764;52.042;6.830;2023-04-24T22:55:30;26.40;;;5.65;;
35644;SDS011;21764;52.042;6.830;2023-04-24T23:00:31;18.45;;;5.28;;
35644;SDS011;21764;52.042;6.830;2023-04-24T23:05:31;18.77;;;6.07;;
35644;SDS011;21764;52.042;6.830;2023-04-24T23:10:32;20.00;;;6.03;;
35644;SDS011;21764;52.042;6.830;2023-04-24T23:15:33;17.13;;;5.43;;
35644;SDS011;21764;52.042;6.830;2023-04-24T23:20:33;13.60;;;5.50;;
35644;SDS011;21764;52.042;6.830;2023-04-24T23:25:34;15.38;;;5.22;;
35644;SDS011;21764;52.042;6.830;2023-04-24T23:30:35;16.17;;;5.25;;
35644;SDS011;21764;52.042;6.830;2023-04-24T23:35:36;21.50;;;5.20;;
35644;SDS011;21764;52.042;6.830;2023-04-24T23:40:36;12.25;;;4.95;;
35644;SDS011;21764;52.042;6.830;2023-04-24T23:45:37;16.10;;;5.25;;
35644;SDS011;21764;52.042;6.830;2023-04-24T23:50:39;13.32;;;4.43;;
35644;SDS011;21764;52.042;6.830;2023-04-24T23:55:41;10.68;;;4.60;;
